Time;durP1;ratioP1;P1;durP2;ratioP2;P2;SDS_P1;SDS_P2;PMS_P1;PMS_P2;Temp;Humidity;BMP_temperature;BMP_pressure;BME280_temperature;BME280_humidity;BME280_pressure;Samples;Min_cycle;Max_cycle;Signal;HPM_P1;HPM_P2
2022/11/19 00:01:51;;;;;;;3.30;3.10;;;17.70;69.50;18.70;99824.00;;;;5069476;28;20559;-51
2022/11/19 00:04:17;;;;;;;3.77;3.23;;;17.70;69.50;18.70;99818.00;;;;5070176;28;20592;-50
2022/11/19 00:06:43;;;;;;;3.97;3.40;;;17.60;69.50;18.70;99829.00;;;;5069512;28;20217;-49
2022/11/19 00:09:13;;;;;;;3.50;3.20;;;17.60;69.50;18.70;99810.00;;;;5070831;28;20537;-52
2022/11/19 00:14:23;;;;;;;3.40;3.10;;;17.60;69.60;18.60;99818.00;;;;5069552;28;20258;-50
2022/11/19 00:16:48;;;;;;;3.50;3.20;;;17.60;69.50;18.60;99809.00;;;;5069047;28;20764;-52
2022/11/19 00:19:14;;;;;;;3.50;3.20;;;17.60;69.50;18.60;99818.00;;;;5069078;28;20564;-51
2022/11/19 00:21:40;;;;;;;3.23;2.93;;;17.60;69.50;18.60;99823.00;;;;5070699;28;20187;-51
2022/11/19 00:24:06;;;;;;;3.67;3.37;;;17.60;69.50;18.60;99822.00;;;;5053257;28;20242;-52
2022/11/19 00:26:32;;;;;;;3.13;2.93;;;17.60;69.50;18.60;99823.00;;;;5069102;28;20170;-52
2022/11/19 00:28:58;;;;;;;3.10;2.90;;;17.60;69.60;18.60;99817.00;;;;5068963;28;20180;-50
2022/11/19 00:31:23;;;;;;;3.30;3.00;;;17.60;69.50;18.60;99825.00;;;;5068628;28;20165;-50
2022/11/19 00:33:49;;;;;;;3.40;3.10;;;17.50;69.40;18.60;99819.00;;;;5067733;28;20509;-50
2022/11/19 00:36:15;;;;;;;3.23;2.93;;;17.50;69.40;18.60;99809.00;;;;5068471;28;20573;-52
2022/11/19 00:38:41;;;;;;;3.13;2.90;;;17.50;69.40;18.60;99811.00;;;;5050963;28;20171;-48
2022/11/19 00:41:07;;;;;;;3.20;2.90;;;17.50;69.40;18.60;99809.00;;;;5068556;28;20189;-50
2022/11/19 00:43:48;;;;;;;3.30;3.00;;;17.50;69.40;18.60;99809.00;;;;5068440;28;20175;-50
2022/11/19 00:46:29;;;;;;;2.90;2.70;;;17.50;69.40;18.60;99819.00;;;;5068054;28;20782;-50
2022/11/19 00:48:57;;;;;;;3.20;3.00;;;17.50;69.40;18.60;99808.00;;;;5068082;28;20165;-50
2022/11/19 00:51:24;;;;;;;2.80;2.60;;;17.50;69.40;18.60;99821.00;;;;5067983;28;20256;-51
2022/11/19 00:53:50;;;;;;;3.17;2.87;;;17.50;69.40;18.60;99822.00;;;;5068088;28;20178;-50
2022/11/19 00:56:18;;;;;;;3.07;2.80;;;17.50;69.40;18.60;99820.00;;;;5067791;28;20188;-50
2022/11/19 00:58:44;;;;;;;3.13;2.83;;;17.50;69.40;18.60;99827.00;;;;5067797;28;20169;-51
2022/11/19 01:01:10;;;;;;;3.20;2.90;;;17.50;69.40;18.60;99820.00;;;;5067858;28;20238;-50
2022/11/19 01:03:36;;;;;;;3.33;3.03;;;17.40;69.30;18.50;99828.00;;;;5049825;28;20168;-50
2022/11/19 01:06:02;;;;;;;2.97;2.77;;;17.40;69.40;18.60;99829.00;;;;5067986;28;20191;-50
2022/11/19 01:08:27;;;;;;;3.13;2.90;;;17.40;69.40;18.60;99820.00;;;;5066710;28;20177;-51
2022/11/19 01:10:53;;;;;;;2.93;2.70;;;17.40;69.60;18.50;99830.00;;;;5067859;28;20172;-50
2022/11/19 01:13:34;;;;;;;2.80;2.60;;;17.40;69.60;18.50;99826.00;;;;5067558;28;20585;-50
2022/11/19 01:16:00;;;;;;;3.20;3.00;;;17.30;69.50;18.50;99834.00;;;;5067870;28;20667;-52
2022/11/19 01:18:27;;;;;;;2.73;2.53;;;17.30;69.50;18.50;99827.00;;;;5067764;28;20169;-50
2022/11/19 01:20:53;;;;;;;2.80;2.60;;;17.30;69.60;18.50;99825.00;;;;5067712;28;20195;-50
2022/11/19 01:23:18;;;;;;;2.93;2.70;;;17.30;69.50;18.50;99833.00;;;;5049656;28;20200;-50
2022/11/19 01:25:44;;;;;;;3.27;3.07;;;17.30;69.60;18.50;99830.00;;;;5067938;28;20196;-53
2022/11/19 01:28:10;;;;;;;2.90;2.70;;;17.30;69.60;18.50;99826.00;;;;5067860;28;20173;-51
2022/11/19 01:30:39;;;;;;;3.10;2.80;;;17.30;69.60;18.50;99824.00;;;;5067739;28;20401;-50
2022/11/19 01:33:05;;;;;;;2.90;2.70;;;17.30;69.50;18.50;99830.00;;;;5067333;28;20166;-50
2022/11/19 01:35:31;;;;;;;3.73;3.17;;;17.20;69.40;18.50;99830.00;;;;5067979;28;20197;-50
2022/11/19 01:37:59;;;;;;;2.90;2.70;;;17.30;69.60;18.50;99833.00;;;;5067821;28;20232;-50
2022/11/19 01:40:26;;;;;;;2.90;2.70;;;17.20;69.50;18.50;99831.00;;;;5067343;28;20193;-50
2022/11/19 01:42:55;;;;;;;2.90;2.70;;;17.20;69.50;18.40;99842.00;;;;5070631;28;20179;-50
2022/11/19 01:45:51;;;;;;;2.93;2.73;;;17.20;69.60;18.40;99839.00;;;;5052170;28;20202;-51
2022/11/19 01:48:26;;;;;;;2.80;2.60;;;17.20;69.60;18.40;99836.00;;;;5055291;28;20238;-50
2022/11/19 01:50:59;;;;;;;2.63;2.43;;;17.20;69.60;18.40;99835.00;;;;5053480;28;20179;-50
2022/11/19 01:53:28;;;;;;;2.83;2.63;;;17.20;69.60;18.40;99844.00;;;;5053482;28;20641;-50
2022/11/19 01:55:54;;;;;;;2.80;2.60;;;17.20;69.60;18.40;99834.00;;;;5053319;28;20188;-51
2022/11/19 01:58:21;;;;;;;2.87;2.67;;;17.10;69.60;18.10;99851.00;;;;5053019;28;20798;-51
2022/11/19 02:00:47;;;;;;;2.70;2.50;;;17.10;69.80;18.40;99848.00;;;;5053560;28;20234;-50
2022/11/19 02:03:13;;;;;;;2.90;2.70;;;17.10;69.80;18.40;99847.00;;;;5052813;28;20193;-52
2022/11/19 02:05:40;;;;;;;2.50;2.30;;;17.10;69.90;18.40;99856.00;;;;5052858;28;20269;-50
2022/11/19 02:08:08;;;;;;;2.80;2.60;;;17.10;69.90;18.40;99855.00;;;;5036727;28;20218;-49
2022/11/19 02:11:30;;;;;;;2.70;2.50;;;17.10;69.90;18.40;99860.00;;;;5071097;28;20184;-50
2022/11/19 02:14:12;;;;;;;3.10;2.80;;;17.10;69.90;18.30;99863.00;;;;5070581;28;20234;-51
2022/11/19 02:17:15;;;;;;;2.80;2.60;;;17.10;69.90;18.30;99859.00;;;;5037682;28;20226;-50
2022/11/19 02:20:08;;;;;;;2.60;2.40;;;17.10;70.00;18.30;99867.00;;;;5070945;28;20195;-52
2022/11/19 02:23:11;;;;;;;2.80;2.60;;;17.00;69.90;18.30;99863.00;;;;5073037;28;20647;-51
2022/11/19 02:26:20;;;;;;;3.10;2.80;;;17.00;69.90;18.20;99865.00;;;;5052323;28;20185;-52
2022/11/19 02:28:47;;;;;;;2.70;2.50;;;17.00;69.90;18.20;99868.00;;;;5055376;28;20174;-52
2022/11/19 02:31:28;;;;;;;2.60;2.40;;;17.10;70.00;18.20;99866.00;;;;5052703;28;20178;-53
2022/11/19 02:34:10;;;;;;;2.80;2.60;;;17.00;69.90;18.20;99871.00;;;;5070377;28;20178;-51
2022/11/19 02:36:47;;;;;;;2.77;2.57;;;17.00;69.90;18.20;99869.00;;;;5037874;28;20685;-53
2022/11/19 02:39:53;;;;;;;2.60;2.40;;;17.00;69.80;18.20;99860.00;;;;5052309;28;20178;-50
2022/11/19 02:42:58;;;;;;;2.60;2.40;;;17.00;69.80;18.20;99875.00;;;;5034728;28;20189;-52
2022/11/19 02:45:35;;;;;;;2.50;2.30;;;17.00;69.80;18.20;99877.00;;;;5052067;28;20186;-51
2022/11/19 02:48:15;;;;;;;2.60;2.40;;;17.00;69.80;18.20;99874.00;;;;5054977;28;20164;-49
2022/11/19 02:50:52;;;;;;;2.60;2.40;;;17.00;69.90;18.20;99875.00;;;;5036869;28;20188;-50
2022/11/19 02:53:18;;;;;;;2.60;2.40;;;17.00;69.90;18.20;99878.00;;;;5035933;28;20160;-53
2022/11/19 03:06:40;;;;;;;2.70;2.50;;;16.90;70.00;18.10;99874.00;;;;5054962;28;20169;-51
2022/11/19 03:09:06;;;;;;;2.43;2.23;;;16.90;70.00;18.10;99876.00;;;;5052014;28;20172;-51
2022/11/19 03:11:32;;;;;;;2.50;2.30;;;16.90;70.00;18.10;99864.00;;;;5069642;28;20176;-49
2022/11/19 03:17:42;;;;;;;2.50;2.30;;;16.90;70.00;18.10;99890.00;;;;5055224;28;20189;-50
2022/11/19 03:20:46;;;;;;;2.13;2.03;;;16.90;70.10;18.10;99883.00;;;;5052390;28;20350;-49
2022/11/19 03:23:22;;;;;;;2.47;2.27;;;16.90;70.00;18.10;99888.00;;;;5007838;28;20203;-49
2022/11/19 03:26:00;;;;;;;2.50;2.30;;;16.80;69.80;18.10;99881.00;;;;5051465;28;20198;-51
2022/11/19 03:28:29;;;;;;;2.67;2.47;;;16.80;69.90;18.10;99883.00;;;;5069457;28;20602;-49
2022/11/19 03:30:55;;;;;;;2.40;2.20;;;16.80;69.90;18.10;99885.00;;;;5053219;28;20178;-51
2022/11/19 03:33:21;;;;;;;2.40;2.20;;;16.80;69.90;18.10;99891.00;;;;5070287;28;20182;-51
2022/11/19 03:35:51;;;;;;;2.40;2.20;;;16.80;70.00;18.00;99895.00;;;;5051393;28;20189;-52
2022/11/19 03:38:33;;;;;;;2.40;2.20;;;16.80;69.80;18.00;99886.00;;;;5051639;28;20231;-51
2022/11/19 03:40:59;;;;;;;2.33;2.20;;;16.90;70.00;18.00;99877.00;;;;5053133;28;20261;-50
2022/11/19 03:43:26;;;;;;;2.20;2.10;;;16.80;69.90;18.00;99889.00;;;;5034801;28;20250;-53
2022/11/19 03:45:53;;;;;;;2.43;2.23;;;16.80;69.80;18.00;99902.00;;;;5035104;28;20201;-52
2022/11/19 03:48:19;;;;;;;2.17;2.07;;;16.80;70.00;18.00;99901.00;;;;5068796;28;20197;-51
2022/11/19 03:51:00;;;;;;;2.30;2.20;;;16.80;70.00;18.00;99905.00;;;;5051201;28;20171;-50
2022/11/19 03:53:26;;;;;;;2.10;2.00;;;16.80;70.00;18.00;99893.00;;;;5050955;28;20186;-51
2022/11/19 03:56:01;;;;;;;2.10;2.00;;;16.80;69.90;18.00;99901.00;;;;5050790;28;20196;-50
2022/11/19 03:58:28;;;;;;;2.30;2.10;;;16.80;70.00;18.00;99902.00;;;;5051147;28;20180;-52
2022/11/19 04:00:54;;;;;;;2.40;2.20;;;16.70;69.80;18.00;99905.00;;;;5051173;28;20209;-52
2022/11/19 04:03:19;;;;;;;2.13;2.03;;;16.70;69.80;18.00;99912.00;;;;5068599;28;20227;-50
2022/11/19 04:05:45;;;;;;;2.00;1.90;;;16.70;69.80;18.00;99921.00;;;;5068857;28;20243;-51
2022/11/19 04:08:11;;;;;;;2.40;2.20;;;16.70;70.10;18.00;99919.00;;;;5068727;28;20180;-50
2022/11/19 04:10:37;;;;;;;2.20;2.10;;;16.60;70.00;18.00;99919.00;;;;5068657;28;20187;-50
2022/11/19 04:13:02;;;;;;;2.13;2.03;;;16.70;70.10;18.00;99924.00;;;;5068508;28;20540;-51
2022/11/19 04:15:28;;;;;;;2.23;2.10;;;16.70;70.00;18.00;99931.00;;;;5068564;28;20213;-51
2022/11/19 04:17:54;;;;;;;2.33;2.17;;;16.70;70.00;18.00;99918.00;;;;5068569;28;20193;-49
2022/11/19 04:20:19;;;;;;;2.27;2.10;;;16.70;70.00;17.90;99933.00;;;;5050811;28;20193;-50
2022/11/19 04:22:45;;;;;;;2.50;2.30;;;16.70;69.80;17.90;99928.00;;;;5068733;28;20176;-52
2022/11/19 04:25:11;;;;;;;2.53;2.03;;;16.70;69.90;17.90;99931.00;;;;5068487;28;20601;-50
2022/11/19 04:27:37;;;;;;;2.17;1.97;;;16.70;70.00;17.90;99933.00;;;;5068381;28;20260;-50
2022/11/19 04:30:04;;;;;;;5.83;2.10;;;16.70;70.20;17.90;99938.00;;;;5068440;28;20253;-52
2022/11/19 04:32:29;;;;;;;2.20;2.00;;;16.70;70.30;17.90;99940.00;;;;5068318;28;20194;-50
2022/11/19 04:34:55;;;;;;;3.03;2.30;;;16.70;70.20;17.90;99957.00;;;;5068190;28;20191;-49
2022/11/19 04:37:21;;;;;;;3.30;2.20;;;16.70;69.80;17.90;99939.00;;;;5068249;28;20174;-53
2022/11/19 04:39:46;;;;;;;3.50;2.30;;;16.60;70.30;17.90;99948.00;;;;5068017;28;20221;-49
2022/11/19 04:42:12;;;;;;;5.27;2.30;;;16.70;70.20;17.90;99951.00;;;;5068105;28;20174;-51
2022/11/19 04:44:38;;;;;;;2.93;2.13;;;16.60;70.10;17.90;99953.00;;;;5067967;28;20811;-50
2022/11/19 04:47:04;;;;;;;4.00;2.27;;;16.70;70.10;17.90;99953.00;;;;5067996;28;20245;-49
2022/11/19 04:49:30;;;;;;;3.53;2.00;;;16.70;69.90;17.80;99955.00;;;;5067909;28;20180;-49
2022/11/19 04:51:55;;;;;;;2.67;2.07;;;16.70;69.70;17.80;99964.00;;;;5068637;28;20246;-50
2022/11/19 04:54:21;;;;;;;2.87;2.03;;;16.60;69.40;17.80;99974.00;;;;5067915;28;20202;-51
2022/11/19 04:56:47;;;;;;;3.50;2.10;;;16.60;69.40;17.80;99970.00;;;;5068173;28;20220;-50
2022/11/19 04:59:13;;;;;;;2.30;2.10;;;16.60;69.20;17.80;99982.00;;;;5068364;28;20177;-49
2022/11/19 05:01:39;;;;;;;2.30;2.10;;;16.60;69.00;17.80;99977.00;;;;5068147;28;20445;-48
2022/11/19 05:04:04;;;;;;;2.17;2.00;;;16.60;68.90;17.80;99974.00;;;;5068841;28;20181;-49
2022/11/19 05:06:30;;;;;;;1.80;1.70;;;16.60;68.80;17.80;99982.00;;;;5068266;28;20637;-50
2022/11/19 05:08:56;;;;;;;2.37;2.00;;;16.60;68.60;17.80;99932.00;;;;5068321;28;20178;-50
2022/11/19 05:11:21;;;;;;;2.73;1.80;;;16.60;68.50;17.80;99981.00;;;;5064479;28;20184;-51
2022/11/19 05:13:47;;;;;;;2.07;1.90;;;16.60;68.40;17.80;99991.00;;;;5048231;28;20178;-50
2022/11/19 05:16:13;;;;;;;1.80;1.70;;;16.60;68.50;17.80;99998.00;;;;5048196;28;20202;-48
2022/11/19 05:18:39;;;;;;;2.03;1.90;;;16.50;68.30;17.70;99996.00;;;;5048515;28;20622;-50
2022/11/19 05:21:04;;;;;;;2.60;1.80;;;16.50;68.30;17.70;99980.00;;;;5051409;28;20194;-49
2022/11/19 05:23:30;;;;;;;1.80;1.70;;;16.60;68.30;17.70;99994.00;;;;5051953;28;20956;-49
2022/11/19 05:25:56;;;;;;;3.07;1.70;;;16.50;68.10;17.70;99997.00;;;;5051730;28;20705;-51
2022/11/19 05:28:22;;;;;;;2.67;1.90;;;16.50;68.00;17.70;99996.00;;;;5052124;28;20178;-50
2022/11/19 05:30:47;;;;;;;2.37;1.90;;;16.50;67.90;17.50;100000.00;;;;5053244;28;20174;-50
2022/11/19 05:33:13;;;;;;;2.50;1.70;;;16.50;67.90;17.70;100003.00;;;;5052553;28;20177;-49
2022/11/19 05:35:39;;;;;;;2.77;1.87;;;16.50;67.80;17.70;100010.00;;;;5052854;28;20209;-50
2022/11/19 05:38:07;;;;;;;2.70;2.10;;;16.50;67.80;17.70;100021.00;;;;5052513;28;20179;-50
2022/11/19 05:40:32;;;;;;;3.63;1.93;;;16.50;67.70;17.70;100020.00;;;;5052546;28;20216;-52
2022/11/19 05:43:04;;;;;;;7.97;2.40;;;16.50;67.60;17.70;100033.00;;;;5052102;28;20648;-51
2022/11/19 05:45:30;;;;;;;6.90;2.70;;;16.40;67.50;17.60;100027.00;;;;5035048;28;20186;-52
2022/11/19 05:47:55;;;;;;;10.37;2.80;;;16.40;67.40;17.60;100020.00;;;;5069204;28;20189;-49
2022/11/19 05:50:21;;;;;;;9.73;3.00;;;16.40;67.30;17.60;100022.00;;;;5071744;28;20748;-50
2022/11/19 05:52:47;;;;;;;7.33;2.83;;;16.40;67.30;17.60;100027.00;;;;5071791;28;20165;-50
2022/11/19 05:55:13;;;;;;;10.03;2.90;;;16.40;67.20;17.60;100028.00;;;;5071541;28;20259;-49
2022/11/19 05:57:38;;;;;;;8.50;2.90;;;16.40;67.20;17.60;100033.00;;;;5071211;28;20174;-50
2022/11/19 06:00:05;;;;;;;9.70;3.07;;;16.40;67.10;17.60;100040.00;;;;5071617;28;20201;-51
2022/11/19 06:02:30;;;;;;;9.30;2.73;;;16.40;67.10;17.60;100043.00;;;;5071088;28;20177;-50
2022/11/19 06:04:56;;;;;;;7.30;2.80;;;16.40;67.10;17.60;100032.00;;;;5071134;28;20193;-51
2022/11/19 06:07:22;;;;;;;9.43;2.60;;;16.40;67.20;17.50;100039.00;;;;5053187;28;20186;-51
2022/11/19 06:09:48;;;;;;;7.27;2.83;;;16.40;67.20;17.50;100039.00;;;;5071573;28;20173;-49
2022/11/19 06:12:13;;;;;;;5.60;2.70;;;16.30;67.10;17.50;100040.00;;;;5070828;28;20181;-50
2022/11/19 06:14:40;;;;;;;7.20;2.63;;;16.40;67.40;17.50;100041.00;;;;5071473;28;20189;-51
2022/11/19 06:17:06;;;;;;;8.27;2.90;;;16.30;67.50;17.50;100045.00;;;;5070573;28;20197;-49
2022/11/19 06:19:32;;;;;;;11.30;3.10;;;16.30;67.60;17.50;100049.00;;;;5071409;28;20473;-50
2022/11/19 06:21:58;;;;;;;6.90;2.70;;;16.30;67.80;17.50;100053.00;;;;5071508;28;20538;-51
2022/11/19 06:24:23;;;;;;;7.70;2.70;;;16.30;67.90;17.50;100044.00;;;;5071005;28;20229;-51
2022/11/19 06:26:49;;;;;;;6.13;2.83;;;16.30;67.80;17.50;100062.00;;;;5070958;28;20211;-51
2022/11/19 06:29:16;;;;;;;6.30;2.60;;;16.30;67.90;17.50;100070.00;;;;5070910;28;20231;-51
2022/11/19 06:31:41;;;;;;;7.60;2.73;;;16.20;68.00;17.50;100076.00;;;;5069370;28;20150;-51
2022/11/19 06:34:07;;;;;;;5.67;2.43;;;16.30;68.10;17.50;100070.00;;;;5070568;28;20193;-50
2022/11/19 06:36:33;;;;;;;11.70;2.50;;;16.20;68.00;17.50;100076.00;;;;5052979;28;20253;-50
2022/11/19 06:38:59;;;;;;;6.53;2.53;;;16.20;68.00;17.40;100085.00;;;;5070134;28;20223;-49
2022/11/19 06:41:24;;;;;;;6.57;3.00;;;16.20;68.00;17.40;100088.00;;;;5070628;28;20245;-50
2022/11/19 06:43:51;;;;;;;3.20;2.20;;;16.20;67.90;17.40;100086.00;;;;5070739;28;20185;-48
2022/11/19 06:46:16;;;;;;;4.43;2.40;;;16.20;68.00;17.40;100091.00;;;;5070554;28;20692;-50
2022/11/19 06:48:42;;;;;;;7.23;2.50;;;16.20;67.80;17.40;100096.00;;;;5070609;28;20166;-50
2022/11/19 06:51:08;;;;;;;3.00;2.20;;;16.20;67.90;17.40;100090.00;;;;5070928;28;20208;-49
2022/11/19 06:53:34;;;;;;;3.97;2.47;;;16.20;67.80;17.40;100091.00;;;;5070814;28;20174;-50
2022/11/19 06:56:08;;;;;;;4.00;2.23;;;16.20;67.80;17.40;100098.00;;;;5070643;28;20221;-51
2022/11/19 06:58:34;;;;;;;4.80;2.20;;;16.20;67.90;17.40;100090.00;;;;5070742;28;20178;-50
2022/11/19 07:01:00;;;;;;;4.73;2.30;;;16.20;67.90;17.40;100089.00;;;;5070636;28;20197;-51
2022/11/19 07:03:26;;;;;;;5.33;2.37;;;16.20;67.90;17.40;100098.00;;;;5070373;28;20176;-48
2022/11/19 07:06:01;;;;;;;3.07;2.20;;;16.10;67.80;17.30;100096.00;;;;5070823;28;20227;-51
2022/11/19 07:08:26;;;;;;;3.63;2.37;;;16.10;67.90;17.30;100103.00;;;;5052726;28;20764;-51
2022/11/19 07:10:52;;;;;;;3.17;2.10;;;16.10;67.90;17.30;100112.00;;;;5071394;28;20182;-50
2022/11/19 07:13:18;;;;;;;4.73;2.23;;;16.10;67.90;17.30;100095.00;;;;5070402;28;20184;-50
2022/11/19 07:15:44;;;;;;;2.90;2.20;;;16.10;67.90;17.30;100120.00;;;;5052081;28;20224;-51
2022/11/19 07:18:09;;;;;;;4.27;2.20;;;16.10;67.90;17.30;100135.00;;;;5069869;28;20166;-49
2022/11/19 07:20:35;;;;;;;3.00;2.10;;;16.10;67.90;17.30;100143.00;;;;5070026;28;20190;-50
2022/11/19 07:23:01;;;;;;;2.70;2.40;;;16.10;67.90;17.30;100141.00;;;;5070271;28;20240;-50
2022/11/19 07:25:27;;;;;;;3.57;2.20;;;16.10;67.90;17.30;100142.00;;;;5069975;28;20278;-50
2022/11/19 07:27:52;;;;;;;2.77;2.50;;;16.10;67.90;17.30;100142.00;;;;5069689;28;20736;-51
2022/11/19 07:30:18;;;;;;;3.40;2.43;;;16.00;67.80;17.30;100148.00;;;;5069827;28;20173;-50
2022/11/19 07:32:44;;;;;;;3.70;2.10;;;16.00;67.80;17.20;100156.00;;;;5051763;28;20633;-48
2022/11/19 07:35:10;;;;;;;3.67;2.33;;;16.00;67.80;17.20;100160.00;;;;5069499;28;20681;-50
2022/11/19 07:37:36;;;;;;;2.57;2.17;;;16.00;67.80;17.20;100154.00;;;;5069346;28;20253;-50
2022/11/19 07:40:03;;;;;;;2.90;2.17;;;16.00;67.80;17.20;100151.00;;;;5051412;28;20277;-51
2022/11/19 07:45:14;;;;;;;2.50;2.23;;;16.00;67.80;17.20;100154.00;;;;5069323;28;20200;-50
2022/11/19 07:47:39;;;;;;;3.70;2.23;;;16.00;67.80;17.20;100163.00;;;;5069419;28;20197;-51
2022/11/19 07:50:05;;;;;;;2.40;2.20;;;16.00;67.80;17.20;100161.00;;;;5069559;28;20217;-49
2022/11/19 07:52:31;;;;;;;3.07;2.03;;;16.00;67.80;17.20;100163.00;;;;5069405;28;20185;-49
2022/11/19 07:54:57;;;;;;;3.27;2.40;;;16.00;67.80;17.10;100187.00;;;;5051721;28;20226;-50
2022/11/19 07:57:23;;;;;;;2.40;2.20;;;15.90;67.90;17.10;100178.00;;;;5069309;28;20184;-49
2022/11/19 07:59:48;;;;;;;3.07;2.30;;;15.90;67.80;17.10;100178.00;;;;5069331;28;20231;-50
2022/11/19 08:02:14;;;;;;;2.47;2.20;;;15.90;67.80;17.10;100181.00;;;;5068999;28;20170;-50
2022/11/19 08:04:40;;;;;;;3.00;2.40;;;15.90;67.80;17.10;100183.00;;;;5069245;28;20548;-51
2022/11/19 08:07:06;;;;;;;2.57;2.00;;;15.90;67.80;17.10;100176.00;;;;5069084;28;20665;-50
2022/11/19 08:09:31;;;;;;;3.00;2.33;;;15.90;67.80;17.10;100183.00;;;;5070240;28;20246;-50
2022/11/19 08:11:57;;;;;;;3.47;2.50;;;15.90;67.80;17.10;100187.00;;;;5068890;28;20181;-49
2022/11/19 08:14:23;;;;;;;3.90;2.60;;;15.90;67.90;17.10;100189.00;;;;5069961;28;20338;-50
2022/11/19 08:19:33;;;;;;;3.07;2.10;;;15.90;68.10;17.10;100188.00;;;;5069209;28;20196;-49
2022/11/19 08:21:58;;;;;;;2.33;2.13;;;15.80;67.90;17.10;100202.00;;;;5069027;28;20165;-50
2022/11/19 08:24:25;;;;;;;2.43;2.23;;;15.80;67.90;17.00;100200.00;;;;5069317;28;20304;-50
2022/11/19 08:26:51;;;;;;;3.93;2.50;;;15.80;67.90;17.00;100202.00;;;;5064841;28;20707;-50
2022/11/19 08:29:19;;;;;;;2.50;2.30;;;15.80;67.90;17.00;100190.00;;;;5008944;28;20169;-51
2022/11/19 08:31:45;;;;;;;4.77;2.70;;;15.80;68.00;17.00;100198.00;;;;5068774;28;20762;-51
2022/11/19 08:34:11;;;;;;;2.50;2.30;;;15.80;68.10;17.00;100203.00;;;;5065786;28;20570;-51
2022/11/19 08:36:37;;;;;;;5.00;2.40;;;15.90;68.10;17.00;100200.00;;;;5068323;28;20174;-50
2022/11/19 08:39:03;;;;;;;5.17;2.30;;;15.90;68.30;17.00;100195.00;;;;5068107;28;20182;-51
2022/11/19 08:44:13;;;;;;;3.77;2.43;;;15.90;68.40;17.00;100209.00;;;;5048535;28;20185;-50
2022/11/19 08:46:40;;;;;;;3.27;2.30;;;15.90;68.80;17.00;100216.00;;;;5064212;28;20174;-50
2022/11/19 08:49:06;;;;;;;3.50;2.30;;;16.00;68.90;17.00;100210.00;;;;5068965;28;20184;-49
2022/11/19 08:51:31;;;;;;;4.87;2.50;;;16.00;68.90;17.00;100203.00;;;;5068482;28;20239;-49
2022/11/19 08:53:57;;;;;;;3.50;2.00;;;16.10;68.90;17.10;100223.00;;;;5067895;28;20575;-50
2022/11/19 08:56:23;;;;;;;3.93;2.43;;;16.20;68.70;17.10;100211.00;;;;5068635;28;20173;-50
2022/11/19 08:58:49;;;;;;;3.43;2.33;;;16.40;68.50;17.10;100217.00;;;;5067566;28;20189;-50
2022/11/19 09:01:16;;;;;;;4.43;2.40;;;16.40;68.20;17.20;100212.00;;;;5030271;28;20218;-50
2022/11/19 09:03:42;;;;;;;4.00;2.50;;;16.60;68.30;17.30;100230.00;;;;5048563;28;20174;-50
2022/11/19 09:06:07;;;;;;;4.23;2.50;;;16.80;68.00;17.40;100235.00;;;;5047969;28;20224;-50
2022/11/19 09:08:33;;;;;;;5.50;2.60;;;16.80;68.90;17.40;100237.00;;;;5048329;28;20654;-50
2022/11/19 09:11:04;;;;;;;8.60;2.90;;;17.00;68.80;17.50;100239.00;;;;5048249;28;20705;-50
2022/11/19 09:13:29;;;;;;;15.17;4.20;;;17.10;70.00;17.60;100243.00;;;;5048218;28;20173;-52
2022/11/19 09:15:55;;;;;;;15.37;4.77;;;17.10;69.10;17.70;100253.00;;;;5048291;28;20198;-50
2022/11/19 09:18:21;;;;;;;13.63;4.60;;;17.30;69.20;17.70;100251.00;;;;5047988;28;20379;-50
2022/11/19 09:20:53;;;;;;;15.47;4.90;;;17.30;69.00;17.80;100251.00;;;;5048474;28;20206;-51
2022/11/19 09:23:19;;;;;;;14.37;4.47;;;17.50;68.90;17.90;100253.00;;;;5048900;28;20166;-51
2022/11/19 09:25:45;;;;;;;12.47;4.00;;;17.50;68.50;18.00;100246.00;;;;5048476;28;20578;-50
2022/11/19 09:28:10;;;;;;;14.13;4.43;;;17.50;68.40;18.00;100242.00;;;;5013474;28;20550;-51
2022/11/19 09:30:36;;;;;;;14.57;5.10;;;17.60;68.40;18.10;100249.00;;;;5046548;28;20664;-51
2022/11/19 09:33:02;;;;;;;9.43;4.37;;;17.60;68.40;18.10;100251.00;;;;5046876;28;20635;-51
2022/11/19 09:35:28;;;;;;;13.03;4.20;;;17.60;68.40;18.20;100259.00;;;;5047523;28;20555;-50
2022/11/19 09:37:53;;;;;;;10.17;4.10;;;17.60;68.50;18.20;100259.00;;;;5030699;28;20201;-50
2022/11/19 09:40:20;;;;;;;9.40;4.40;;;17.60;68.50;18.20;100266.00;;;;5047930;28;20204;-52
2022/11/19 09:42:56;;;;;;;8.30;4.20;;;17.60;68.50;18.20;100262.00;;;;5048247;28;20175;-49
2022/11/19 09:45:46;;;;;;;8.37;4.00;;;17.60;68.60;18.20;100267.00;;;;5048257;28;20183;-49
2022/11/19 09:48:17;;;;;;;9.77;4.30;;;17.60;68.60;18.20;100261.00;;;;5033577;28;20170;-51
2022/11/19 09:50:53;;;;;;;9.73;4.27;;;17.60;68.60;18.20;100276.00;;;;5030463;28;20168;-49
2022/11/19 09:53:20;;;;;;;9.73;4.50;;;17.60;68.70;18.20;100284.00;;;;5014652;28;20163;-51
2022/11/19 09:55:47;;;;;;;8.60;4.20;;;17.60;68.80;18.30;100284.00;;;;5030331;28;20660;-50
2022/11/19 09:58:22;;;;;;;10.30;4.20;;;17.60;68.80;18.00;100281.00;;;;5030933;28;20175;-50
2022/11/19 10:00:47;;;;;;;7.73;3.80;;;17.50;68.80;18.30;100289.00;;;;5030477;28;20218;-49
2022/11/19 10:03:16;;;;;;;7.07;3.63;;;17.50;68.80;18.20;100278.00;;;;5030757;28;20201;-49
2022/11/19 10:06:07;;;;;;;9.90;4.17;;;17.40;68.80;18.30;100291.00;;;;5031816;28;20551;-49
2022/11/19 10:09:05;;;;;;;7.37;3.80;;;17.50;68.90;18.20;100294.00;;;;5053638;28;20179;-51
2022/11/19 10:11:52;;;;;;;6.50;3.80;;;17.40;68.90;18.20;100294.00;;;;5021094;28;20644;-49
2022/11/19 10:14:42;;;;;;;7.73;3.93;;;17.40;69.00;18.20;100293.00;;;;5020086;28;20668;-50
2022/11/19 10:17:45;;;;;;;6.60;3.50;;;17.40;69.00;18.20;100304.00;;;;5051455;28;20176;-49
2022/11/19 10:20:45;;;;;;;5.70;3.50;;;17.30;69.00;18.20;100296.00;;;;5051263;28;20692;-50
2022/11/19 10:23:49;;;;;;;7.53;3.70;;;17.30;69.10;18.10;100298.00;;;;5051233;28;20417;-49
2022/11/19 10:26:16;;;;;;;9.03;3.70;;;17.30;69.10;18.10;100300.00;;;;5050228;28;20321;-49
2022/11/19 10:28:55;;;;;;;6.73;3.67;;;17.30;69.20;18.10;100302.00;;;;5033354;28;20167;-49
2022/11/19 10:31:35;;;;;;;6.27;3.83;;;17.30;69.20;18.10;100303.00;;;;5017232;28;20170;-49
2022/11/19 10:34:32;;;;;;;8.80;3.80;;;17.20;69.90;18.10;100308.00;;;;5017171;28;20186;-48
2022/11/19 10:37:06;;;;;;;8.60;3.70;;;17.20;69.10;18.10;100302.00;;;;5019318;28;20179;-50
2022/11/19 10:39:41;;;;;;;6.00;3.60;;;17.20;69.10;18.00;100311.00;;;;5018301;28;20254;-50
2022/11/19 10:42:37;;;;;;;6.67;3.70;;;17.20;69.10;18.10;100307.00;;;;5034240;28;20166;-50
2022/11/19 10:45:25;;;;;;;7.40;3.40;;;17.10;69.00;18.00;100312.00;;;;5016824;28;20240;-50
2022/11/19 10:48:11;;;;;;;6.27;3.47;;;17.10;69.00;18.00;100304.00;;;;5022378;28;20511;-51
2022/11/19 10:50:37;;;;;;;5.27;3.30;;;17.10;69.00;18.00;100303.00;;;;5017575;28;20174;-51
2022/11/19 10:53:28;;;;;;;6.97;3.50;;;17.00;68.80;18.00;100295.00;;;;5016656;28;20174;-50
2022/11/19 10:56:00;;;;;;;4.23;3.43;;;17.10;69.00;18.00;100300.00;;;;5033401;28;20693;-49
2022/11/19 10:58:32;;;;;;;4.50;3.60;;;17.10;69.00;18.00;100305.00;;;;5017944;28;20575;-49
2022/11/19 11:00:59;;;;;;;3.77;3.10;;;17.00;68.90;18.00;100308.00;;;;5034087;28;20186;-49
2022/11/19 11:03:37;;;;;;;3.93;3.33;;;17.00;69.00;17.90;100308.00;;;;5017311;28;20167;-48
2022/11/19 11:06:08;;;;;;;4.50;3.33;;;17.00;69.00;17.90;100305.00;;;;5017996;28;20183;-52
2022/11/19 11:08:50;;;;;;;5.17;3.40;;;17.00;69.00;17.90;100296.00;;;;5050997;28;20734;-50
2022/11/19 11:14:53;;;;;;;4.27;3.20;;;16.90;68.90;17.80;100298.00;;;;4927428;29;20219;-50
2022/11/19 11:17:27;;;;;;;5.03;3.40;;;16.90;69.00;17.80;100293.00;;;;5026288;28;20213;-50
2022/11/19 11:20:17;;;;;;;4.40;3.20;;;16.90;69.20;17.80;100296.00;;;;5032562;28;20194;-52
2022/11/19 11:22:44;;;;;;;4.20;3.20;;;16.90;69.10;17.80;100284.00;;;;5035162;28;20257;-49
2022/11/19 11:25:19;;;;;;;5.53;3.30;;;16.80;69.00;17.80;100288.00;;;;5016459;28;20689;-49
2022/11/19 11:27:45;;;;;;;4.27;3.20;;;16.80;69.00;17.80;100300.00;;;;5032878;28;20178;-51
2022/11/19 11:30:10;;;;;;;4.50;3.30;;;16.80;69.00;17.80;100299.00;;;;5050177;28;20239;-50
2022/11/19 11:32:36;;;;;;;4.47;3.20;;;16.80;69.10;17.80;100302.00;;;;5050148;28;20696;-50